sensor_id;sensor_type;location;lat;lon;timestamp;P1;durP1;ratioP1;P2;durP2;ratioP2
22129;SDS011;11231;50.746;4.272;2024-02-26T00:01:01;4.97;;;1.70;;
22129;SDS011;11231;50.746;4.272;2024-02-26T00:03:27;6.97;;;1.80;;
22129;SDS011;11231;50.746;4.272;2024-02-26T00:05:53;7.13;;;1.87;;
22129;SDS011;11231;50.746;4.272;2024-02-26T00:08:18;5.47;;;1.87;;
22129;SDS011;11231;50.746;4.272;2024-02-26T00:10:44;4.30;;;1.80;;
22129;SDS011;11231;50.746;4.272;2024-02-26T00:13:10;4.43;;;1.57;;
22129;SDS011;11231;50.746;4.272;2024-02-26T00:15:35;4.93;;;2.03;;
22129;SDS011;11231;50.746;4.272;2024-02-26T00:18:01;4.70;;;1.90;;
22129;SDS011;11231;50.746;4.272;2024-02-26T00:20:27;3.87;;;1.70;;
22129;SDS011;11231;50.746;4.272;2024-02-26T00:22:53;7.07;;;2.03;;
22129;SDS011;11231;50.746;4.272;2024-02-26T00:25:18;4.03;;;1.87;;
22129;SDS011;11231;50.746;4.272;2024-02-26T00:27:44;3.63;;;1.73;;
22129;SDS011;11231;50.746;4.272;2024-02-26T00:30:10;5.60;;;1.97;;
22129;SDS011;11231;50.746;4.272;2024-02-26T00:32:37;3.57;;;1.80;;
22129;SDS011;11231;50.746;4.272;2024-02-26T00:35:03;6.37;;;2.03;;
22129;SDS011;11231;50.746;4.272;2024-02-26T00:37:28;8.03;;;1.97;;
22129;SDS011;11231;50.746;4.272;2024-02-26T00:39:54;5.63;;;1.70;;
22129;SDS011;11231;50.746;4.272;2024-02-26T00:42:20;5.20;;;2.07;;
22129;SDS011;11231;50.746;4.272;2024-02-26T00:44:46;6.60;;;1.90;;
22129;SDS011;11231;50.746;4.272;2024-02-26T00:47:11;3.47;;;1.90;;
22129;SDS011;11231;50.746;4.272;2024-02-26T00:49:37;5.47;;;2.03;;
22129;SDS011;11231;50.746;4.272;2024-02-26T00:52:03;4.00;;;1.80;;
22129;SDS011;11231;50.746;4.272;2024-02-26T00:54:29;5.00;;;2.00;;
22129;SDS011;11231;50.746;4.272;2024-02-26T00:56:55;4.87;;;1.83;;
22129;SDS011;11231;50.746;4.272;2024-02-26T00:59:21;5.43;;;1.90;;
22129;SDS011;11231;50.746;4.272;2024-02-26T01:01:46;7.27;;;2.20;;
22129;SDS011;11231;50.746;4.272;2024-02-26T01:04:12;5.83;;;2.20;;
22129;SDS011;11231;50.746;4.272;2024-02-26T01:06:38;8.13;;;2.57;;
22129;SDS011;11231;50.746;4.272;2024-02-26T01:09:04;5.57;;;2.00;;
22129;SDS011;11231;50.746;4.272;2024-02-26T01:11:29;4.20;;;1.70;;
22129;SDS011;11231;50.746;4.272;2024-02-26T01:13:55;9.33;;;3.43;;
22129;SDS011;11231;50.746;4.272;2024-02-26T01:16:22;5.70;;;2.03;;
22129;SDS011;11231;50.746;4.272;2024-02-26T01:18:48;8.03;;;2.23;;
22129;SDS011;11231;50.746;4.272;2024-02-26T01:21:14;5.60;;;1.90;;
22129;SDS011;11231;50.746;4.272;2024-02-26T01:23:40;6.87;;;2.20;;
22129;SDS011;11231;50.746;4.272;2024-02-26T01:26:05;6.20;;;2.20;;
22129;SDS011;11231;50.746;4.272;2024-02-26T01:28:31;6.63;;;2.20;;
22129;SDS011;11231;50.746;4.272;2024-02-26T01:30:57;4.40;;;1.70;;
22129;SDS011;11231;50.746;4.272;2024-02-26T01:33:24;7.80;;;2.17;;
22129;SDS011;11231;50.746;4.272;2024-02-26T01:35:51;6.23;;;2.30;;
22129;SDS011;11231;50.746;4.272;2024-02-26T01:38:18;6.83;;;2.03;;
22129;SDS011;11231;50.746;4.272;2024-02-26T01:40:44;4.73;;;1.80;;
22129;SDS011;11231;50.746;4.272;2024-02-26T01:43:09;7.47;;;1.90;;
22129;SDS011;11231;50.746;4.272;2024-02-26T01:45:35;9.53;;;2.23;;
22129;SDS011;11231;50.746;4.272;2024-02-26T01:48:01;4.73;;;1.90;;
22129;SDS011;11231;50.746;4.272;2024-02-26T01:50:26;4.33;;;1.90;;
22129;SDS011;11231;50.746;4.272;2024-02-26T01:52:53;3.47;;;1.73;;
22129;SDS011;11231;50.746;4.272;2024-02-26T01:55:21;7.83;;;2.20;;
22129;SDS011;11231;50.746;4.272;2024-02-26T01:57:49;5.47;;;2.13;;
22129;SDS011;11231;50.746;4.272;2024-02-26T02:00:17;8.17;;;2.40;;
22129;SDS011;11231;50.746;4.272;2024-02-26T02:02:44;6.17;;;2.27;;
22129;SDS011;11231;50.746;4.272;2024-02-26T02:05:12;7.40;;;3.10;;
22129;SDS011;11231;50.746;4.272;2024-02-26T02:07:45;6.27;;;2.20;;
22129;SDS011;11231;50.746;4.272;2024-02-26T02:10:11;5.33;;;2.40;;
22129;SDS011;11231;50.746;4.272;2024-02-26T02:12:38;5.57;;;2.30;;
22129;SDS011;11231;50.746;4.272;2024-02-26T02:15:05;6.10;;;2.70;;
22129;SDS011;11231;50.746;4.272;2024-02-26T02:17:31;4.37;;;1.87;;
22129;SDS011;11231;50.746;4.272;2024-02-26T02:19:57;8.60;;;2.70;;
22129;SDS011;11231;50.746;4.272;2024-02-26T02:22:23;26.77;;;2.90;;
22129;SDS011;11231;50.746;4.272;2024-02-26T02:24:49;6.67;;;2.23;;
22129;SDS011;11231;50.746;4.272;2024-02-26T02:27:16;6.23;;;2.30;;
22129;SDS011;11231;50.746;4.272;2024-02-26T02:29:42;5.60;;;2.27;;
22129;SDS011;11231;50.746;4.272;2024-02-26T02:32:08;4.47;;;2.03;;
22129;SDS011;11231;50.746;4.272;2024-02-26T02:34:34;7.27;;;2.60;;
22129;SDS011;11231;50.746;4.272;2024-02-26T02:37:01;4.10;;;1.90;;
22129;SDS011;11231;50.746;4.272;2024-02-26T02:39:26;4.57;;;2.00;;
22129;SDS011;11231;50.746;4.272;2024-02-26T02:41:52;6.77;;;2.23;;
22129;SDS011;11231;50.746;4.272;2024-02-26T02:44:18;6.03;;;2.10;;
22129;SDS011;11231;50.746;4.272;2024-02-26T02:46:43;6.20;;;2.00;;
22129;SDS011;11231;50.746;4.272;2024-02-26T02:49:10;4.33;;;2.00;;
22129;SDS011;11231;50.746;4.272;2024-02-26T02:51:36;4.57;;;2.17;;
22129;SDS011;11231;50.746;4.272;2024-02-26T02:54:02;7.40;;;2.20;;
22129;SDS011;11231;50.746;4.272;2024-02-26T02:56:28;5.40;;;2.20;;
22129;SDS011;11231;50.746;4.272;2024-02-26T02:58:54;6.17;;;2.30;;
22129;SDS011;11231;50.746;4.272;2024-02-26T03:01:20;4.20;;;2.17;;
22129;SDS011;11231;50.746;4.272;2024-02-26T03:03:46;4.53;;;2.33;;
22129;SDS011;11231;50.746;4.272;2024-02-26T03:06:11;7.87;;;2.50;;
22129;SDS011;11231;50.746;4.272;2024-02-26T03:08:37;7.10;;;2.50;;
22129;SDS011;11231;50.746;4.272;2024-02-26T03:11:04;5.53;;;2.17;;
22129;SDS011;11231;50.746;4.272;2024-02-26T03:13:30;4.63;;;2.47;;
22129;SDS011;11231;50.746;4.272;2024-02-26T03:15:56;6.30;;;2.30;;
22129;SDS011;11231;50.746;4.272;2024-02-26T03:18:22;7.57;;;2.57;;
22129;SDS011;11231;50.746;4.272;2024-02-26T03:20:49;6.93;;;2.37;;
22129;SDS011;11231;50.746;4.272;2024-02-26T03:23:14;4.33;;;2.23;;
22129;SDS011;11231;50.746;4.272;2024-02-26T03:25:42;5.73;;;2.37;;
22129;SDS011;11231;50.746;4.272;2024-02-26T03:28:09;5.70;;;2.47;;
22129;SDS011;11231;50.746;4.272;2024-02-26T03:30:34;10.20;;;3.10;;
22129;SDS011;11231;50.746;4.272;2024-02-26T03:33:00;5.80;;;2.50;;
22129;SDS011;11231;50.746;4.272;2024-02-26T03:35:26;6.00;;;2.50;;
22129;SDS011;11231;50.746;4.272;2024-02-26T03:37:51;4.40;;;2.00;;
22129;SDS011;11231;50.746;4.272;2024-02-26T03:40:17;6.50;;;2.70;;
22129;SDS011;11231;50.746;4.272;2024-02-26T03:42:44;6.43;;;2.50;;
22129;SDS011;11231;50.746;4.272;2024-02-26T03:45:10;7.03;;;2.63;;
22129;SDS011;11231;50.746;4.272;2024-02-26T03:47:37;4.70;;;2.80;;
22129;SDS011;11231;50.746;4.272;2024-02-26T03:50:05;6.73;;;2.70;;
22129;SDS011;11231;50.746;4.272;2024-02-26T03:52:32;5.50;;;2.50;;
22129;SDS011;11231;50.746;4.272;2024-02-26T03:54:59;5.40;;;2.83;;
22129;SDS011;11231;50.746;4.272;2024-02-26T03:57:25;8.43;;;3.10;;
22129;SDS011;11231;50.746;4.272;2024-02-26T03:59:50;5.97;;;2.90;;
22129;SDS011;11231;50.746;4.272;2024-02-26T04:02:16;4.90;;;3.00;;
22129;SDS011;11231;50.746;4.272;2024-02-26T04:04:44;6.27;;;2.60;;
22129;SDS011;11231;50.746;4.272;2024-02-26T04:07:10;7.03;;;3.17;;
22129;SDS011;11231;50.746;4.272;2024-02-26T04:09:37;6.17;;;2.97;;
22129;SDS011;11231;50.746;4.272;2024-02-26T04:12:02;6.47;;;2.90;;
22129;SDS011;11231;50.746;4.272;2024-02-26T04:14:28;6.53;;;2.83;;
22129;SDS011;11231;50.746;4.272;2024-02-26T04:16:54;5.07;;;2.80;;
22129;SDS011;11231;50.746;4.272;2024-02-26T04:19:20;9.10;;;3.03;;
22129;SDS011;11231;50.746;4.272;2024-02-26T04:21:46;7.20;;;2.90;;
22129;SDS011;11231;50.746;4.272;2024-02-26T04:24:11;4.00;;;2.43;;
22129;SDS011;11231;50.746;4.272;2024-02-26T04:26:37;5.77;;;2.67;;
22129;SDS011;11231;50.746;4.272;2024-02-26T04:29:03;5.40;;;3.10;;
22129;SDS011;11231;50.746;4.272;2024-02-26T04:31:28;5.80;;;2.40;;
22129;SDS011;11231;50.746;4.272;2024-02-26T04:33:55;5.20;;;2.27;;
22129;SDS011;11231;50.746;4.272;2024-02-26T04:36:21;4.83;;;2.40;;
22129;SDS011;11231;50.746;4.272;2024-02-26T04:38:47;4.97;;;2.60;;
22129;SDS011;11231;50.746;4.272;2024-02-26T04:41:13;5.60;;;2.70;;
22129;SDS011;11231;50.746;4.272;2024-02-26T04:43:38;6.57;;;3.80;;
22129;SDS011;11231;50.746;4.272;2024-02-26T04:46:09;7.23;;;2.97;;
22129;SDS011;11231;50.746;4.272;2024-02-26T04:48:38;7.63;;;3.30;;
22129;SDS011;11231;50.746;4.272;2024-02-26T04:51:04;6.37;;;3.10;;
22129;SDS011;11231;50.746;4.272;2024-02-26T04:53:30;6.07;;;3.27;;
22129;SDS011;11231;50.746;4.272;2024-02-26T04:55:55;5.93;;;3.20;;
22129;SDS011;11231;50.746;4.272;2024-02-26T04:58:21;6.80;;;3.23;;
22129;SDS011;11231;50.746;4.272;2024-02-26T05:00:47;7.57;;;3.60;;
22129;SDS011;11231;50.746;4.272;2024-02-26T05:03:12;8.10;;;4.00;;
22129;SDS011;11231;50.746;4.272;2024-02-26T05:05:40;7.40;;;3.30;;
22129;SDS011;11231;50.746;4.272;2024-02-26T05:08:09;7.50;;;4.10;;
22129;SDS011;11231;50.746;4.272;2024-02-26T05:10:35;7.10;;;3.83;;
22129;SDS011;11231;50.746;4.272;2024-02-26T05:13:04;7.33;;;4.43;;
22129;SDS011;11231;50.746;4.272;2024-02-26T05:15:30;9.97;;;4.97;;
22129;SDS011;11231;50.746;4.272;2024-02-26T05:17:57;8.77;;;4.60;;
22129;SDS011;11231;50.746;4.272;2024-02-26T05:20:23;12.30;;;5.73;;
22129;SDS011;11231;50.746;4.272;2024-02-26T05:22:49;10.90;;;5.83;;
22129;SDS011;11231;50.746;4.272;2024-02-26T05:25:15;10.20;;;5.60;;
22129;SDS011;11231;50.746;4.272;2024-02-26T05:27:42;11.77;;;6.67;;
22129;SDS011;11231;50.746;4.272;2024-02-26T05:30:09;10.77;;;6.43;;
22129;SDS011;11231;50.746;4.272;2024-02-26T05:32:36;11.77;;;7.27;;
22129;SDS011;11231;50.746;4.272;2024-02-26T05:35:02;11.77;;;6.83;;
22129;SDS011;11231;50.746;4.272;2024-02-26T05:37:29;15.10;;;7.53;;
22129;SDS011;11231;50.746;4.272;2024-02-26T05:39:55;10.63;;;6.47;;
22129;SDS011;11231;50.746;4.272;2024-02-26T05:42:21;11.97;;;7.77;;
22129;SDS011;11231;50.746;4.272;2024-02-26T05:44:46;13.83;;;8.53;;
22129;SDS011;11231;50.746;4.272;2024-02-26T05:47:12;14.27;;;8.70;;
22129;SDS011;11231;50.746;4.272;2024-02-26T05:49:38;16.13;;;9.10;;
22129;SDS011;11231;50.746;4.272;2024-02-26T05:52:05;16.50;;;9.60;;
22129;SDS011;11231;50.746;4.272;2024-02-26T05:54:31;15.07;;;9.17;;
22129;SDS011;11231;50.746;4.272;2024-02-26T05:56:57;14.17;;;9.10;;
22129;SDS011;11231;50.746;4.272;2024-02-26T05:59:23;14.63;;;9.13;;
22129;SDS011;11231;50.746;4.272;2024-02-26T06:01:49;14.73;;;8.87;;
22129;SDS011;11231;50.746;4.272;2024-02-26T06:04:14;13.00;;;8.37;;
22129;SDS011;11231;50.746;4.272;2024-02-26T06:06:42;14.70;;;8.50;;
22129;SDS011;11231;50.746;4.272;2024-02-26T06:09:09;14.77;;;8.83;;
22129;SDS011;11231;50.746;4.272;2024-02-26T06:11:36;17.73;;;10.27;;
22129;SDS011;11231;50.746;4.272;2024-02-26T06:14:02;17.27;;;10.33;;
22129;SDS011;11231;50.746;4.272;2024-02-26T06:16:27;15.17;;;10.00;;
22129;SDS011;11231;50.746;4.272;2024-02-26T06:18:53;17.90;;;10.80;;
22129;SDS011;11231;50.746;4.272;2024-02-26T06:21:19;16.13;;;10.83;;
22129;SDS011;11231;50.746;4.272;2024-02-26T06:23:44;17.83;;;11.93;;
22129;SDS011;11231;50.746;4.272;2024-02-26T06:26:10;17.13;;;11.37;;
22129;SDS011;11231;50.746;4.272;2024-02-26T06:28:36;17.67;;;11.87;;
22129;SDS011;11231;50.746;4.272;2024-02-26T06:31:05;20.37;;;13.60;;
22129;SDS011;11231;50.746;4.272;2024-02-26T06:33:31;19.83;;;13.50;;
22129;SDS011;11231;50.746;4.272;2024-02-26T06:35:57;19.17;;;14.03;;
22129;SDS011;11231;50.746;4.272;2024-02-26T06:38:23;22.77;;;14.57;;
22129;SDS011;11231;50.746;4.272;2024-02-26T06:40:49;24.43;;;14.90;;
22129;SDS011;11231;50.746;4.272;2024-02-26T06:43:15;24.43;;;15.67;;
22129;SDS011;11231;50.746;4.272;2024-02-26T06:45:40;19.17;;;12.30;;
22129;SDS011;11231;50.746;4.272;2024-02-26T06:48:06;23.83;;;15.53;;
22129;SDS011;11231;50.746;4.272;2024-02-26T06:50:32;22.10;;;14.37;;
22129;SDS011;11231;50.746;4.272;2024-02-26T06:52:58;25.13;;;16.17;;
22129;SDS011;11231;50.746;4.272;2024-02-26T06:55:24;24.97;;;15.70;;
22129;SDS011;11231;50.746;4.272;2024-02-26T06:57:49;25.87;;;17.03;;
22129;SDS011;11231;50.746;4.272;2024-02-26T07:00:15;23.17;;;16.30;;
22129;SDS011;11231;50.746;4.272;2024-02-26T07:02:42;22.67;;;15.40;;
22129;SDS011;11231;50.746;4.272;2024-02-26T07:05:08;24.27;;;16.90;;
22129;SDS011;11231;50.746;4.272;2024-02-26T07:07:35;23.67;;;15.10;;
22129;SDS011;11231;50.746;4.272;2024-02-26T07:10:01;25.77;;;17.30;;
22129;SDS011;11231;50.746;4.272;2024-02-26T07:12:29;21.63;;;15.87;;
22129;SDS011;11231;50.746;4.272;2024-02-26T07:14:55;23.63;;;15.77;;
22129;SDS011;11231;50.746;4.272;2024-02-26T07:17:21;21.33;;;15.13;;
22129;SDS011;11231;50.746;4.272;2024-02-26T07:19:46;21.03;;;15.50;;
22129;SDS011;11231;50.746;4.272;2024-02-26T07:22:12;23.50;;;14.87;;
22129;SDS011;11231;50.746;4.272;2024-02-26T07:24:39;22.47;;;15.80;;
22129;SDS011;11231;50.746;4.272;2024-02-26T07:27:04;23.83;;;15.70;;
22129;SDS011;11231;50.746;4.272;2024-02-26T07:29:31;24.33;;;17.60;;
22129;SDS011;11231;50.746;4.272;2024-02-26T07:31:57;25.53;;;17.20;;
22129;SDS011;11231;50.746;4.272;2024-02-26T07:34:23;23.27;;;16.47;;
22129;SDS011;11231;50.746;4.272;2024-02-26T07:36:52;24.73;;;18.67;;
22129;SDS011;11231;50.746;4.272;2024-02-26T07:39:19;26.37;;;18.80;;
22129;SDS011;11231;50.746;4.272;2024-02-26T07:41:45;24.50;;;17.60;;
22129;SDS011;11231;50.746;4.272;2024-02-26T07:44:15;26.77;;;18.20;;
22129;SDS011;11231;50.746;4.272;2024-02-26T07:46:41;23.70;;;17.80;;
22129;SDS011;11231;50.746;4.272;2024-02-26T07:49:07;22.67;;;16.90;;
22129;SDS011;11231;50.746;4.272;2024-02-26T07:51:33;26.73;;;17.70;;
22129;SDS011;11231;50.746;4.272;2024-02-26T07:54:00;24.43;;;18.53;;
22129;SDS011;11231;50.746;4.272;2024-02-26T07:56:26;23.33;;;17.83;;
22129;SDS011;11231;50.746;4.272;2024-02-26T07:58:52;25.63;;;17.43;;
22129;SDS011;11231;50.746;4.272;2024-02-26T08:01:18;24.30;;;17.80;;
22129;SDS011;11231;50.746;4.272;2024-02-26T08:03:43;23.83;;;17.30;;
22129;SDS011;11231;50.746;4.272;2024-02-26T08:06:09;23.17;;;17.90;;
22129;SDS011;11231;50.746;4.272;2024-02-26T08:08:35;24.23;;;18.30;;
22129;SDS011;11231;50.746;4.272;2024-02-26T08:11:01;25.30;;;18.17;;
22129;SDS011;11231;50.746;4.272;2024-02-26T08:13:27;24.40;;;17.90;;
22129;SDS011;11231;50.746;4.272;2024-02-26T08:15:53;18.83;;;11.57;;
22129;SDS011;11231;50.746;4.272;2024-02-26T08:18:18;23.20;;;17.40;;
22129;SDS011;11231;50.746;4.272;2024-02-26T08:20:44;24.97;;;17.23;;
22129;SDS011;11231;50.746;4.272;2024-02-26T08:23:11;23.20;;;16.73;;
22129;SDS011;11231;50.746;4.272;2024-02-26T08:25:36;23.63;;;16.87;;
22129;SDS011;11231;50.746;4.272;2024-02-26T08:28:02;23.27;;;17.63;;
22129;SDS011;11231;50.746;4.272;2024-02-26T08:30:28;22.67;;;16.23;;
22129;SDS011;11231;50.746;4.272;2024-02-26T08:32:54;22.40;;;16.43;;
22129;SDS011;11231;50.746;4.272;2024-02-26T08:35:19;25.10;;;17.60;;
22129;SDS011;11231;50.746;4.272;2024-02-26T08:37:48;22.70;;;16.93;;
22129;SDS011;11231;50.746;4.272;2024-02-26T08:40:14;23.07;;;17.20;;
22129;SDS011;11231;50.746;4.272;2024-02-26T08:42:40;22.67;;;16.23;;
22129;SDS011;11231;50.746;4.272;2024-02-26T08:45:07;23.07;;;17.00;;
22129;SDS011;11231;50.746;4.272;2024-02-26T08:47:33;21.90;;;15.60;;
22129;SDS011;11231;50.746;4.272;2024-02-26T08:49:59;21.37;;;16.27;;
22129;SDS011;11231;50.746;4.272;2024-02-26T08:52:24;21.83;;;16.63;;
22129;SDS011;11231;50.746;4.272;2024-02-26T08:54:50;22.33;;;14.57;;
22129;SDS011;11231;50.746;4.272;2024-02-26T08:57:16;20.60;;;15.00;;
22129;SDS011;11231;50.746;4.272;2024-02-26T08:59:41;19.97;;;14.73;;
22129;SDS011;11231;50.746;4.272;2024-02-26T09:02:07;20.97;;;15.07;;
22129;SDS011;11231;50.746;4.272;2024-02-26T09:04:34;20.37;;;14.97;;
22129;SDS011;11231;50.746;4.272;2024-02-26T09:07:01;20.33;;;15.27;;
22129;SDS011;11231;50.746;4.272;2024-02-26T09:09:27;20.33;;;15.33;;
22129;SDS011;11231;50.746;4.272;2024-02-26T09:11:53;19.40;;;14.40;;
22129;SDS011;11231;50.746;4.272;2024-02-26T09:14:20;18.87;;;14.43;;
22129;SDS011;11231;50.746;4.272;2024-02-26T09:16:46;20.93;;;14.07;;
22129;SDS011;11231;50.746;4.272;2024-02-26T09:19:16;18.93;;;14.37;;
22129;SDS011;11231;50.746;4.272;2024-02-26T09:21:45;20.63;;;15.70;;
22129;SDS011;11231;50.746;4.272;2024-02-26T09:24:11;21.17;;;15.60;;
22129;SDS011;11231;50.746;4.272;2024-02-26T09:26:37;20.63;;;15.93;;
22129;SDS011;11231;50.746;4.272;2024-02-26T09:29:03;22.70;;;16.13;;
22129;SDS011;11231;50.746;4.272;2024-02-26T09:31:30;20.40;;;13.87;;
22129;SDS011;11231;50.746;4.272;2024-02-26T09:33:56;21.83;;;16.17;;
22129;SDS011;11231;50.746;4.272;2024-02-26T09:36:21;20.87;;;15.90;;
22129;SDS011;11231;50.746;4.272;2024-02-26T09:38:48;19.50;;;14.60;;
22129;SDS011;11231;50.746;4.272;2024-02-26T09:41:16;20.90;;;15.27;;
22129;SDS011;11231;50.746;4.272;2024-02-26T09:43:43;19.80;;;13.80;;
22129;SDS011;11231;50.746;4.272;2024-02-26T09:46:11;18.43;;;14.33;;
22129;SDS011;11231;50.746;4.272;2024-02-26T09:48:37;16.73;;;11.97;;
22129;SDS011;11231;50.746;4.272;2024-02-26T09:51:03;17.97;;;13.07;;
22129;SDS011;11231;50.746;4.272;2024-02-26T09:53:30;19.03;;;12.47;;
22129;SDS011;11231;50.746;4.272;2024-02-26T09:56:00;18.00;;;13.07;;
22129;SDS011;11231;50.746;4.272;2024-02-26T09:58:27;17.67;;;11.73;;
22129;SDS011;11231;50.746;4.272;2024-02-26T10:00:56;16.40;;;11.57;;
22129;SDS011;11231;50.746;4.272;2024-02-26T10:03:34;17.27;;;11.93;;
22129;SDS011;11231;50.746;4.272;2024-02-26T10:06:06;14.40;;;10.30;;
22129;SDS011;11231;50.746;4.272;2024-02-26T10:08:33;14.00;;;9.83;;
22129;SDS011;11231;50.746;4.272;2024-02-26T10:11:00;13.23;;;10.40;;
22129;SDS011;11231;50.746;4.272;2024-02-26T10:13:26;14.03;;;9.47;;
22129;SDS011;11231;50.746;4.272;2024-02-26T10:15:52;13.87;;;9.60;;
22129;SDS011;11231;50.746;4.272;2024-02-26T10:18:18;14.17;;;10.20;;
22129;SDS011;11231;50.746;4.272;2024-02-26T10:21:00;13.80;;;9.57;;
22129;SDS011;11231;50.746;4.272;2024-02-26T10:23:26;13.90;;;9.73;;
22129;SDS011;11231;50.746;4.272;2024-02-26T10:25:53;13.70;;;8.83;;
22129;SDS011;11231;50.746;4.272;2024-02-26T10:28:20;12.80;;;9.00;;
22129;SDS011;11231;50.746;4.272;2024-02-26T10:30:46;10.23;;;6.73;;
22129;SDS011;11231;50.746;4.272;2024-02-26T10:33:12;10.30;;;7.10;;
22129;SDS011;11231;50.746;4.272;2024-02-26T10:35:47;11.43;;;7.40;;
22129;SDS011;11231;50.746;4.272;2024-02-26T10:38:13;11.60;;;7.00;;
22129;SDS011;11231;50.746;4.272;2024-02-26T10:40:42;8.77;;;5.80;;
22129;SDS011;11231;50.746;4.272;2024-02-26T10:43:07;10.00;;;6.47;;
22129;SDS011;11231;50.746;4.272;2024-02-26T10:45:33;9.30;;;6.50;;
22129;SDS011;11231;50.746;4.272;2024-02-26T10:48:00;9.83;;;6.27;;
22129;SDS011;11231;50.746;4.272;2024-02-26T10:50:25;9.10;;;6.13;;
22129;SDS011;11231;50.746;4.272;2024-02-26T10:52:51;9.77;;;6.47;;
22129;SDS011;11231;50.746;4.272;2024-02-26T10:55:20;10.60;;;6.60;;
22129;SDS011;11231;50.746;4.272;2024-02-26T10:57:47;10.47;;;6.37;;
22129;SDS011;11231;50.746;4.272;2024-02-26T11:00:16;10.10;;;6.43;;
22129;SDS011;11231;50.746;4.272;2024-02-26T11:02:44;9.07;;;6.13;;
22129;SDS011;11231;50.746;4.272;2024-02-26T11:05:11;8.97;;;5.93;;
22129;SDS011;11231;50.746;4.272;2024-02-26T11:07:38;8.00;;;5.60;;
22129;SDS011;11231;50.746;4.272;2024-02-26T11:10:06;9.00;;;5.60;;
22129;SDS011;11231;50.746;4.272;2024-02-26T11:12:33;7.73;;;5.27;;
22129;SDS011;11231;50.746;4.272;2024-02-26T11:15:03;8.00;;;5.43;;
22129;SDS011;11231;50.746;4.272;2024-02-26T11:17:29;8.60;;;5.50;;
22129;SDS011;11231;50.746;4.272;2024-02-26T11:19:56;8.70;;;5.27;;
22129;SDS011;11231;50.746;4.272;2024-02-26T11:22:24;8.43;;;5.27;;
22129;SDS011;11231;50.746;4.272;2024-02-26T11:24:51;9.33;;;5.60;;
22129;SDS011;11231;50.746;4.272;2024-02-26T11:27:38;11.17;;;5.50;;
22129;SDS011;11231;50.746;4.272;2024-02-26T11:30:08;6.97;;;4.73;;
22129;SDS011;11231;50.746;4.272;2024-02-26T11:32:36;10.23;;;5.07;;
22129;SDS011;11231;50.746;4.272;2024-02-26T11:35:04;8.40;;;5.17;;
22129;SDS011;11231;50.746;4.272;2024-02-26T11:37:30;6.80;;;4.63;;
22129;SDS011;11231;50.746;4.272;2024-02-26T11:39:58;10.67;;;5.10;;
22129;SDS011;11231;50.746;4.272;2024-02-26T11:42:26;8.20;;;5.03;;
22129;SDS011;11231;50.746;4.272;2024-02-26T11:44:52;7.83;;;5.23;;
22129;SDS011;11231;50.746;4.272;2024-02-26T11:47:18;8.53;;;5.73;;
22129;SDS011;11231;50.746;4.272;2024-02-26T11:49:45;8.87;;;5.17;;
22129;SDS011;11231;50.746;4.272;2024-02-26T11:52:10;10.23;;;6.20;;
22129;SDS011;11231;50.746;4.272;2024-02-26T11:57:04;9.17;;;5.50;;
22129;SDS011;11231;50.746;4.272;2024-02-26T11:59:44;7.07;;;5.10;;
22129;SDS011;11231;50.746;4.272;2024-02-26T12:02:10;8.37;;;4.73;;
22129;SDS011;11231;50.746;4.272;2024-02-26T12:04:38;8.47;;;4.83;;
22129;SDS011;11231;50.746;4.272;2024-02-26T12:07:03;6.57;;;3.97;;
22129;SDS011;11231;50.746;4.272;2024-02-26T12:09:31;7.43;;;4.30;;
22129;SDS011;11231;50.746;4.272;2024-02-26T12:11:57;5.97;;;3.97;;
22129;SDS011;11231;50.746;4.272;2024-02-26T12:14:27;4.37;;;3.50;;
22129;SDS011;11231;50.746;4.272;2024-02-26T12:16:53;5.50;;;3.97;;
22129;SDS011;11231;50.746;4.272;2024-02-26T12:19:21;6.17;;;3.73;;
22129;SDS011;11231;50.746;4.272;2024-02-26T12:21:51;7.03;;;4.40;;
22129;SDS011;11231;50.746;4.272;2024-02-26T12:24:18;7.13;;;3.90;;
22129;SDS011;11231;50.746;4.272;2024-02-26T12:26:45;6.10;;;3.90;;
22129;SDS011;11231;50.746;4.272;2024-02-26T12:29:12;6.53;;;4.03;;
22129;SDS011;11231;50.746;4.272;2024-02-26T12:31:38;6.37;;;3.93;;
22129;SDS011;11231;50.746;4.272;2024-02-26T12:34:07;5.07;;;3.47;;
22129;SDS011;11231;50.746;4.272;2024-02-26T12:36:34;5.73;;;3.17;;
22129;SDS011;11231;50.746;4.272;2024-02-26T12:39:02;3.83;;;2.70;;
22129;SDS011;11231;50.746;4.272;2024-02-26T12:41:28;5.43;;;3.40;;
22129;SDS011;11231;50.746;4.272;2024-02-26T12:43:57;6.20;;;3.80;;
22129;SDS011;11231;50.746;4.272;2024-02-26T12:46:23;6.00;;;3.60;;
22129;SDS011;11231;50.746;4.272;2024-02-26T12:48:49;5.63;;;3.80;;
22129;SDS011;11231;50.746;4.272;2024-02-26T12:51:15;7.37;;;4.20;;
22129;SDS011;11231;50.746;4.272;2024-02-26T12:53:42;5.40;;;3.50;;
22129;SDS011;11231;50.746;4.272;2024-02-26T12:56:10;5.50;;;3.57;;
22129;SDS011;11231;50.746;4.272;2024-02-26T12:58:38;6.20;;;3.20;;
22129;SDS011;11231;50.746;4.272;2024-02-26T13:01:04;4.70;;;3.30;;
22129;SDS011;11231;50.746;4.272;2024-02-26T13:03:31;4.63;;;3.00;;
22129;SDS011;11231;50.746;4.272;2024-02-26T13:06:02;5.43;;;2.83;;
22129;SDS011;11231;50.746;4.272;2024-02-26T13:08:29;5.60;;;2.90;;
22129;SDS011;11231;50.746;4.272;2024-02-26T13:10:55;5.67;;;2.63;;
22129;SDS011;11231;50.746;4.272;2024-02-26T13:13:20;5.63;;;3.03;;
22129;SDS011;11231;50.746;4.272;2024-02-26T13:15:47;4.90;;;2.90;;
22129;SDS011;11231;50.746;4.272;2024-02-26T13:18:13;4.37;;;2.80;;
22129;SDS011;11231;50.746;4.272;2024-02-26T13:20:42;5.20;;;2.97;;
22129;SDS011;11231;50.746;4.272;2024-02-26T13:23:11;5.60;;;3.30;;
22129;SDS011;11231;50.746;4.272;2024-02-26T13:25:38;4.97;;;3.10;;
22129;SDS011;11231;50.746;4.272;2024-02-26T13:28:17;5.23;;;3.60;;
22129;SDS011;11231;50.746;4.272;2024-02-26T13:30:50;6.07;;;3.70;;
22129;SDS011;11231;50.746;4.272;2024-02-26T13:33:17;7.10;;;4.03;;
22129;SDS011;11231;50.746;4.272;2024-02-26T13:35:43;6.63;;;4.07;;
22129;SDS011;11231;50.746;4.272;2024-02-26T13:38:10;6.70;;;4.33;;
22129;SDS011;11231;50.746;4.272;2024-02-26T13:40:36;7.07;;;4.30;;
22129;SDS011;11231;50.746;4.272;2024-02-26T13:43:02;10.10;;;4.40;;
22129;SDS011;11231;50.746;4.272;2024-02-26T13:45:28;6.90;;;4.60;;
22129;SDS011;11231;50.746;4.272;2024-02-26T13:48:03;7.33;;;4.43;;
22129;SDS011;11231;50.746;4.272;2024-02-26T13:50:31;8.40;;;4.97;;
22129;SDS011;11231;50.746;4.272;2024-02-26T13:52:57;10.07;;;6.00;;
22129;SDS011;11231;50.746;4.272;2024-02-26T13:55:25;9.17;;;5.70;;
22129;SDS011;11231;50.746;4.272;2024-02-26T13:57:53;9.80;;;6.17;;
22129;SDS011;11231;50.746;4.272;2024-02-26T14:00:19;10.97;;;6.73;;
22129;SDS011;11231;50.746;4.272;2024-02-26T14:02:45;12.27;;;7.03;;
22129;SDS011;11231;50.746;4.272;2024-02-26T14:05:11;10.90;;;7.30;;
22129;SDS011;11231;50.746;4.272;2024-02-26T14:07:37;9.93;;;6.60;;
22129;SDS011;11231;50.746;4.272;2024-02-26T14:10:03;10.90;;;7.20;;
22129;SDS011;11231;50.746;4.272;2024-02-26T14:12:29;11.97;;;7.87;;
22129;SDS011;11231;50.746;4.272;2024-02-26T14:14:54;11.77;;;7.97;;
22129;SDS011;11231;50.746;4.272;2024-02-26T14:17:23;11.33;;;7.63;;
22129;SDS011;11231;50.746;4.272;2024-02-26T14:19:49;12.33;;;8.27;;
22129;SDS011;11231;50.746;4.272;2024-02-26T14:22:14;14.03;;;8.37;;
22129;SDS011;11231;50.746;4.272;2024-02-26T14:24:43;12.00;;;7.97;;
22129;SDS011;11231;50.746;4.272;2024-02-26T14:27:09;12.77;;;8.50;;
22129;SDS011;11231;50.746;4.272;2024-02-26T14:29:39;13.23;;;8.53;;
22129;SDS011;11231;50.746;4.272;2024-02-26T14:32:07;14.23;;;8.00;;
22129;SDS011;11231;50.746;4.272;2024-02-26T14:34:32;13.60;;;8.20;;
22129;SDS011;11231;50.746;4.272;2024-02-26T14:36:58;12.63;;;8.47;;